EGGD

Bristol International Airport

Bristol, United Kingdom
METAR EGGD 230720Z AUTO 29004KT 9999 SCT049 M01/M02 Q1001
Observed Flight Rules
Jan-23 @ 07:20 UTC (11 minutes ago) Visual Flight Rules
Wind Visibility Clouds
290° at 4 knots 10,000+ meters
  • Scattered at 4,900' AGL
Temperatures Readings
Current -1°C / 30°F
Dewpoint -2°C / 28°F
Humidity 93%
Altimeter 29.56" Hg
Pressure 1000.92 hPa
Elevation 189
METAR EGGD 230720Z AUTO 29004KT 9999 SCT049 M01/M02 Q1001
Observed Flight Rules
Jan-23 @ 07:20 UTC
(11 minutes ago)
VFR
Wind Visibility
290° at 4 knots 10,000+ meters
Clouds
  • Scattered at 4,900' AGL
Temperature Dewpoint
-1°C / 30°F -2°C / 28°F
Humidity Altimeter Pressure
93% 29.56" Hg 1000.92 hPa